Etusivu
METAR-TAF:

METAR-TAF

Lentoasemat :

Aeroflex-Andover Airport

Andover, New Jersey, Yhdysvallat

Leveyspiiri: 41-00-32N, Pituuspiiri: 074-44-12W, korkeus merenpinnasta: 177 m

Tämänhetkinen sää

Tämä raportti tehtiin 24 minuuttia sitten, kello 16.54 UTC
Tuuli 4 kn eri suunnista
Lämpötila 21°C
Kosteus 83%
Ilmanpaine 1005 hPa

METAR: K12N 031654Z AUTO VRB04KT 21/18 A2968 RMK AO1 SLP048 P0005 T02110178

Aika: 13:18 (17:18 UTC)


TAF: puuttuu

Säähavainnot ja -ennusteet yli 4000 lentoasemalta (METAR- ja TAF-raportit).

Käytössä olevat sääasemat on merkitty karttaan keltaisilla ja punaisilla pisteillä.

Aseta hiiri pisteen päälle nähdäksesi sääaseman nimen.

Klikkaa sitten nähdäksesi säähavainnot ja -ennusteet.

Kartan vaihtaminen: klikkaa mustalla rastilla varustettuja vihreitä pisteitä, niin voit zoomata sisään; viivalla varustettua vihreää pistettä, niin voit zoomata ulos tai vihreitä nuolia, niin pääset viereisille kartoille.


METAR-TAF: